KCGF/CGF METAR and TAF weather

Enter ICAO airport designator
Station Type Date Time Source
KCGF METAR 2020/07/06 09:55 UTC NOAA

KCGF 060955Z AUTO 00000KT 7SM CLR 15/15 A3003 RMK AO2


Station Type Date Time Source
KCGF Decoded METAR 2020/07/06 09:55 UTC NOAA

Cleveland / Cuyahoga, OH, United States (KCGF) 41-34N 081-29W
Jul 06, 2020 - 05:55 AM EDT / 2020.07.06 0955 UTC
Wind: Calm:0
Visibility: 7 mile(s):0
Sky conditions: clear
Temperature: 59 F (15 C)
Dew Point: 59 F (15 C)
Relative Humidity: 100%
Pressure (altimeter): 30.03 in. Hg (1016 hPa)
ob: KCGF 060955Z AUTO 00000KT 7SM CLR 15/15 A3003 RMK AO2
cycle: 10

Station Type Date Time Source
KCGF TAF 2016/07/19 12:36 UTC NOAA

TAF KCGF 191136Z 1912/2012 VRB05KT P6SM SCT080
FM191400 33008KT P6SM SCT040
FM191900 35008KT P6SM SCT060
FM200000 04003KT P6SM SCT080
FM200700 14003KT P6SM SKC

Example: see airport list